Nearby METAR Reports

 

K1V6 - Canon City, Colorado, USA
Distance from station: E 5mi, 8km
Updated: Thu, 21-Mar-2019 2:10pm MDT
Clear
Clear
 Wind from E
Wind: E 9 mph , 15 km/h, Gust: 17 mph , 28 km/h
Temperature: 55°F , 13°C
Dew Point: 21°F , -6°C
Humidity: 26%
Barometer: 30.13 inHg , 1020.3 hPa
Clouds: Clear
Visibility: 10 miles , 16 km
2019/03/21 20:10 K1V6 212010Z AUTO 10008G15KT 10SM CLR 13/M06 A3013 RMK AO2
KFCS - Fort Carson, Colorado, USA
Distance from station: NE 28mi, 44km
Updated: Thu, 21-Mar-2019 7:58am MDT
NOT Current
Clear
Clear
 Wind from N
Wind: N 8 mph , 13 km/h
Temperature: 32°F , 0°C
Wind Chill: 25°F , -4°C
Dew Point: 19°F , -7°C
Humidity: 60%
Barometer: 30.23 inHg , 1023.7 hPa
Clouds: Clear
Visibility: 10 miles , 16 km
2019/03/21 13:58 KFCS 211358Z AUTO 01007KT 10SM CLR 00/M07 A3023 RMK AO2 SLP264 T00021069 $
 
KCWN - Cheyenne Mtn, Colorado, USA
Distance from station: NE 28mi, 45km
Updated: Thu, 21-Mar-2019 7:58am MDT
NOT Current
Mostly cloudy
Mostly cloudy
 Wind from calm
Wind: Calm
Temperature: 36°F , 2°C
Dew Point: 16°F , -9°C
Humidity: 44%
Barometer: 30.19 inHg , 1022.4 hPa
Clouds: Mostly cloudy
Visibility: 10 miles , 16 km
Cloud details: Mostly cloudy 19000 ft
Mostly cloudy 23000 ft
2019/03/21 13:58 KCWN 211358Z AUTO 00000KT 10SM BKN190 BKN230 02/M09 A3019 RMK AO2 LTG DSNT SW SLP130 T00221095 $
KCOS - Colorado Springs, Colorado, USA
Distance from station: NE 38mi, 60km
Updated: Thu, 21-Mar-2019 1:54pm MDT
Mostly cloudy
Mostly cloudy
 Wind from SSE
Wind: SSE 20 mph , 31 km/h, Gust: 29 mph , 46 km/h
Temperature: 55°F , 13°C
Dew Point: 16°F , -9°C
Humidity: 21%
Barometer: 30.15 inHg , 1021 hPa
Clouds: Mostly cloudy
Visibility: 10 miles , 16 km
Cloud details: Partly cloudy 18000 ft
Mostly cloudy 25000 ft
2019/03/21 19:54 KCOS 211954Z 16017G25KT 10SM SCT180 BKN250 13/M09 A3015 RMK AO2 PK WND 16026/1911 SLP202 T01331094
 
KPUB - Pueblo, Colorado, USA
Distance from station: ESE 39mi, 63km
Updated: Thu, 21-Mar-2019 1:53pm MDT
Clear
Clear
 Wind from E
Wind: E 13 mph , 20 km/h
Temperature: 57°F , 14°C
Dew Point: 23°F , -5°C
Humidity: 27%
Barometer: 30.11 inHg , 1019.6 hPa
Clouds: Clear
Visibility: 10 miles , 16 km
2019/03/21 19:53 KPUB 211953Z 09011KT 10SM CLR 14/M05 A3011 RMK AO2 SLP188 T01441050
KAFF - Usaf Academy/Cos, Colorado, USA
Distance from station: NNE 41mi, 66km
Updated: Thu, 21-Mar-2019 7:58am MDT
NOT Current
Clear
Clear
 Wind from N
Wind: N 9 mph , 15 km/h
Temperature: 27°F , -3°C
Wind Chill: 18°F , -8°C
Dew Point: 19°F , -7°C
Humidity: 74%
Barometer: 30.22 inHg , 1023.4 hPa
Clouds: Clear
Visibility: 10 miles , 16 km
2019/03/21 13:58 KAFF 211358Z AUTO 36008KT 10SM CLR M03/M07 A3022 RMK AO2 SLP250 T10281072
 
K4BM - Wilkerson Pass, Colorado, USA
Distance from station: NNW 45mi, 72km
Updated: Thu, 21-Mar-2019 2:12pm MDT
Clear
Clear
 Wind from WSW
Wind: WSW 5 mph , 7 km/h
Temperature: 32°F , 0°C
Wind Chill: 27°F , -3°C
Dew Point: 9°F , -13°C
Humidity: 37%
Barometer: 30.24 inHg , 1024 hPa
Clouds: Clear
Visibility: 10 miles , 16 km
2019/03/21 20:12 K4BM 212012Z AUTO 24004KT 10SM CLR 00/M13 A3024 RMK AO2 LTG DSNT N AND NW
KANK - Salida, Colorado, USA
Distance from station: W 47mi, 75km
Updated: Thu, 21-Mar-2019 2:15pm MDT
Overcast
Overcast
 Wind from E
Wind: E 5 mph , 7 km/h
Temperature: 50°F , 10°C
Wind Chill: 48°F , 9°C
Dew Point: 14°F , -10°C
Humidity: 24%
Barometer: 30.20 inHg , 1022.7 hPa
Clouds: Overcast
Visibility: 10 miles , 16 km
Cloud details: Overcast 7500 ft
2019/03/21 20:15 KANK 212015Z AUTO 10004KT 10SM OVC075 10/M10 A3020 RMK AO1 T01001098
 
KFLY - Co Spngs Meadow, Colorado, USA
Distance from station: NE 48mi, 78km
Updated: Thu, 21-Mar-2019 2:15pm MDT
Clear
Clear
 Wind from S
Wind: S 17 mph , 28 km/h, Gust: 28 mph , 44 km/h
Temperature: 50°F , 10°C
Wind Chill: 44°F , 7°C
Dew Point: 10°F , -12°C
Humidity: 20%
Barometer: 30.16 inHg , 1021.3 hPa
Clouds: Clear
Visibility: 10 miles , 16 km
2019/03/21 20:15 KFLY 212015Z AUTO 17015G24KT 10SM CLR 10/M12 A3016 RMK AO2 T01041118
KABH - Ellicott-B Afa, Colorado, USA
Distance from station: ENE 53mi, 85km
Updated: Thu, 21-Mar-2019 1:56pm MDT

 Wind from S
Wind: S 16 mph , 26 km/h
Barometer: 30.15 inHg , 1021 hPa
2019/03/21 19:56 KABH 211956Z AUTO 17014KT A3015 RMK AO2 SLPNO $
 
KAEJ - Buena Vista, Colorado, USA
Distance from station: WNW 56mi, 90km
Updated: Thu, 21-Mar-2019 2:15pm MDT
Partly cloudy
Partly cloudy
 Wind from SE
Wind: SE 8 mph , 13 km/h
Temperature: 45°F , 7°C
Wind Chill: 41°F , 5°C
Dew Point: 18°F , -8°C
Humidity: 34%
Barometer: 30.14 inHg , 1020.7 hPa
Clouds: Partly cloudy
Visibility: 10 miles , 16 km
Cloud details: Partly cloudy 6500 ft
Partly cloudy 8000 ft
2019/03/21 20:15 KAEJ 212015Z AUTO 14007KT 10SM SCT065 SCT080 07/M08 A3014 RMK AO2 T00721084
K04V - Saguache Muni, Colorado, USA
Distance from station: WSW 58mi, 93km
Updated: Thu, 21-Mar-2019 2:18pm MDT
Partly cloudy
Partly cloudy
 Wind from calm
Wind: Calm
Temperature: 48°F , 9°C
Dew Point: 19°F , -7°C
Humidity: 32%
Barometer: 30.14 inHg , 1020.7 hPa
Clouds: Partly cloudy
Visibility: 10 miles , 16 km
Cloud details: Partly cloudy 7000 ft
Partly cloudy 8000 ft
Partly cloudy 10000 ft
2019/03/21 20:18 K04V 212018Z AUTO 00000KT 10SM SCT070 SCT080 SCT100 09/M07 A3014 RMK AO2 LTG DSNT SW
 
K7BM - Cottonwood Pass, Colorado, USA
Distance from station: WNW 60mi, 96km
Updated: Thu, 21-Mar-2019 2:06pm MDT
Mostly cloudy
Mostly cloudy
 Wind from ESE
Wind: ESE 6 mph , 9 km/h
Temperature: 37°F , 3°C
Wind Chill: 32°F , 0°C
Dew Point: 18°F , -8°C
Humidity: 45%
Barometer: 30.18 inHg , 1022 hPa
Clouds: Mostly cloudy
Visibility: 10 miles , 16 km
Cloud details: Partly cloudy 3900 ft
Mostly cloudy 4700 ft
Mostly cloudy 6000 ft
2019/03/21 20:06 K7BM 212006Z AUTO 11005KT 10SM SCT039 BKN047 BKN060 03/M08 A3018 RMK AO2 LTG DSNT SW
KMNH - Monument/Elbert, Colorado, USA
Distance from station: NNE 61mi, 98km
Updated: Thu, 21-Mar-2019 2:06pm MDT
Overcast
Overcast
 
Temperature: 43°F , 6°C
Dew Point: 18°F , -8°C
Humidity: 36%
Barometer: 30.15 inHg , 1021 hPa
Clouds: Overcast
Visibility: 10 miles , 16 km
Cloud details: Partly cloudy 9000 ft
Overcast 11000 ft
2019/03/21 20:06 KMNH 212006Z AUTO 10SM SCT090 OVC110 06/M08 A3015 RMK AO2
 
KMYP - Monarch Pass, Colorado, USA
Distance from station: W 61mi, 98km
Updated: Thu, 21-Mar-2019 2:12pm MDT
Mostly cloudy
Mostly cloudy
 Wind from E
Wind: E 10 mph , 17 km/h
Temperature: 27°F , -3°C
Wind Chill: 18°F , -8°C
Dew Point: 18°F , -8°C
Humidity: 69%
Barometer: 30.30 inHg , 1026.1 hPa
Clouds: Mostly cloudy
Visibility: 10 miles , 16 km
Cloud details: Mostly cloudy 3500 ft
Mostly cloudy 4500 ft
2019/03/21 20:12 KMYP 212012Z AUTO 10009KT 10SM BKN035 BKN045 M03/M08 A3030 RMK AO2 LTG DSNT S AND SW
KALS - Alamosa, Colorado, USA
Distance from station: SSW 79mi, 127km
Updated: Thu, 21-Mar-2019 1:52pm MDT
Overcast
Overcast
 Wind from S
Wind: S 10 mph , 17 km/h
Temperature: 48°F , 9°C
Wind Chill: 44°F , 7°C
Dew Point: 16°F , -9°C
Humidity: 27%
Barometer: 30.13 inHg , 1020.3 hPa
Clouds: Overcast
Visibility: 10 miles , 16 km
Cloud details: Mostly cloudy 7000 ft
Overcast 8000 ft
2019/03/21 19:52 KALS 211952Z AUTO 19009KT 10SM BKN070 OVC080 09/M09 A3013 RMK AO2 SLP188 T00891089
 
KAPA - Denver/Arapahoe, Colorado, USA
Distance from station: NNE 79mi, 128km
Updated: Thu, 21-Mar-2019 1:53pm MDT
Mostly cloudy
Mostly cloudy
 Wind from S
Wind: S 21 mph , 33 km/h, Gust: 30 mph , 48 km/h
Temperature: 54°F , 12°C
Dew Point: 18°F , -8°C
Humidity: 24%
Barometer: 30.09 inHg , 1019 hPa
Clouds: Mostly cloudy
Visibility: 10 miles , 16 km
Cloud details: Partly cloudy 12000 ft
Mostly cloudy 20000 ft
2019/03/21 19:53 KAPA 211953Z 17018G26KT 10SM SCT120 BKN200 12/M08 A3009 RMK AO2 PK WND 17030/1857 SLP187 T01221078
KRCV - Del Norte, Colorado, USA
Distance from station: SW 81mi, 130km
Updated: Thu, 21-Mar-2019 2:15pm MDT
Mostly cloudy
Mostly cloudy
 Wind from SE
Wind: SE 14 mph , 22 km/h, Gust: 20 mph , 31 km/h
Temperature: 48°F , 9°C
Wind Chill: 42°F , 6°C
Dew Point: 21°F , -6°C
Humidity: 34%
Barometer: 30.12 inHg , 1020 hPa
Clouds: Mostly cloudy
Visibility: 10 miles , 16 km
Cloud details: Mostly cloudy 6500 ft
Mostly cloudy 8000 ft
2019/03/21 20:15 KRCV 212015Z AUTO 14012G17KT 10SM BKN065 BKN080 09/M06 A3012 RMK AO2 LTG DSNT SW AND W T00861057
 
KLXV - Leadville, Colorado, USA
Distance from station: NW 81mi, 131km
Updated: Thu, 21-Mar-2019 1:53pm MDT
Few Clouds
Few Clouds
 Wind from SSW
Wind: SSW 20 mph , 31 km/h
Temperature: 34°F , 1°C
Wind Chill: 23°F , -5°C
Dew Point: 19°F , -7°C
Humidity: 56%
Barometer: 30.14 inHg , 1020.7 hPa
Clouds: Few Clouds
Visibility: 10 miles , 16 km
Cloud details: Few Clouds 5000 ft
2019/03/21 19:53 KLXV 211953Z AUTO 20017KT 10SM FEW050 01/M07 A3014 RMK AO2 SLP171 T00061072
KCCU - Red Cliff Pass, Colorado, USA
Distance from station: NW 88mi, 142km
Updated: Thu, 21-Mar-2019 2:17pm MDT
Partly cloudy
Partly cloudy
 Wind from SSE
Wind: SSE 13 mph , 20 km/h, Gust: 23 mph , 37 km/h
Temperature: 34°F , 1°C
Wind Chill: 25°F , -4°C
Dew Point: 18°F , -8°C
Humidity: 51%
Barometer: 30.19 inHg , 1022.4 hPa
Clouds: Partly cloudy
Visibility: 10 miles , 16 km
Cloud details: Partly cloudy 12000 ft
2019/03/21 20:17 KCCU 212017Z AUTO 16011G20KT 10SM SCT120 01/M08 A3019 RMK AO2 LTG DSNT W